Time;durP1;ratioP1;P1;durP2;ratioP2;P2;SDS_P1;SDS_P2;PMS_P1;PMS_P2;Temp;Humidity;BMP_temperature;BMP_pressure;BME280_temperature;BME280_humidity;BME280_pressure;Samples;Min_cycle;Max_cycle;Signal;HPM_P1;HPM_P2
2021/10/15 00:01:29;;;;;;;;;;;6.80;99.90;;;5.40;100.00;96117.63;10604442;27;1961;-77
2021/10/15 00:06:32;;;;;;;;;;;6.70;99.90;;;5.37;100.00;96101.31;10591809;27;1894;-78
2021/10/15 00:11:35;;;;;;;;;;;6.70;99.90;;;5.34;100.00;96107.09;10588427;27;2116;-78
2021/10/15 00:16:38;;;;;;;;;;;6.70;99.90;;;5.28;100.00;96106.19;10583932;28;1883;-78
2021/10/15 00:21:41;;;;;;;;;;;6.60;99.90;;;5.24;100.00;96107.69;10600555;27;1811;-79
2021/10/15 00:26:44;;;;;;;;;;;6.60;99.90;;;5.24;100.00;96106.88;10619424;27;1969;-79
2021/10/15 00:31:47;;;;;;;;;;;6.50;99.90;;;5.12;100.00;96098.88;10604925;28;2041;-78
2021/10/15 00:36:50;;;;;;;;;;;6.40;99.90;;;5.08;100.00;96098.50;10591790;28;1896;-78
2021/10/15 00:41:53;;;;;;;;;;;6.40;99.90;;;5.05;100.00;96084.84;10612172;27;1921;-80
2021/10/15 00:46:55;;;;;;;;;;;6.40;99.90;;;5.07;100.00;96074.75;10583890;28;2032;-77
2021/10/15 00:51:59;;;;;;;;;;;6.30;99.90;;;5.05;100.00;96069.66;10580398;28;1938;-78
2021/10/15 00:57:02;;;;;;;;;;;6.40;99.90;;;4.96;100.00;96060.38;10590434;28;2121;-78
2021/10/15 01:02:04;;;;;;;;;;;6.30;99.90;;;4.85;100.00;96051.34;10603892;28;2006;-79
2021/10/15 01:07:07;;;;;;;;;;;6.20;99.90;;;4.74;100.00;96059.34;10586077;28;2039;-78
2021/10/15 01:12:10;;;;;;;;;;;6.10;99.90;;;4.63;100.00;96044.94;10578618;28;2031;-77
2021/10/15 01:17:24;;;;;;;;;;;6.00;99.90;;;4.60;100.00;96046.22;10555404;28;2066;-78
2021/10/15 01:22:46;;;;;;;;;;;5.90;99.90;;;4.59;100.00;96036.63;10559927;28;2019;-78
2021/10/15 01:27:49;;;;;;;;;;;5.90;99.90;;;4.67;100.00;96024.81;10572964;27;1902;-77
2021/10/15 01:33:06;;;;;;;;;;;5.90;99.90;;;4.65;100.00;96013.59;10572315;28;1882;-79
2021/10/15 01:38:10;;;;;;;;;;;5.90;99.90;;;4.63;100.00;96013.00;10585265;27;1855;-77
2021/10/15 01:43:13;;;;;;;;;;;5.90;99.90;;;4.64;100.00;96003.97;10577282;28;2024;-77
2021/10/15 01:48:17;;;;;;;;;;;5.90;99.90;;;4.64;100.00;96006.63;10557912;28;1866;-78
2021/10/15 01:53:20;;;;;;;;;;;5.90;99.90;;;4.68;100.00;95997.16;10573085;28;1901;-77
2021/10/15 01:58:22;;;;;;;;;;;5.90;99.90;;;4.74;100.00;95995.41;10576485;28;1892;-77
2021/10/15 02:03:25;;;;;;;;;;;5.90;99.90;;;4.67;100.00;95986.72;10563667;28;1898;-78
2021/10/15 02:08:28;;;;;;;;;;;5.90;99.90;;;4.59;100.00;95982.56;10578599;27;1961;-78
2021/10/15 02:13:31;;;;;;;;;;;5.90;99.90;;;4.49;100.00;95969.81;10575403;28;1984;-79
2021/10/15 02:18:34;;;;;;;;;;;5.80;99.90;;;4.44;100.00;95966.22;10575760;28;2000;-78
2021/10/15 02:23:37;;;;;;;;;;;5.70;99.90;;;4.30;100.00;95966.44;10576137;28;1909;-78
2021/10/15 02:28:40;;;;;;;;;;;5.70;99.90;;;4.22;100.00;95968.63;10580516;28;2051;-77
2021/10/15 02:33:43;;;;;;;;;;;5.60;99.90;;;4.24;100.00;95959.38;10576111;28;2001;-77
2021/10/15 02:38:46;;;;;;;;;;;5.50;99.90;;;4.18;100.00;95954.97;10576278;28;1787;-80
2021/10/15 02:43:49;;;;;;;;;;;5.50;99.90;;;4.16;100.00;95951.72;10556253;28;1918;-78
2021/10/15 02:48:52;;;;;;;;;;;5.50;99.90;;;4.11;100.00;95961.44;10571444;28;1931;-78
2021/10/15 02:53:55;;;;;;;;;;;5.40;99.90;;;4.01;100.00;95954.00;10580693;27;1977;-78
2021/10/15 02:58:58;;;;;;;;;;;5.40;99.90;;;3.91;100.00;95956.41;10577888;28;1978;-79
2021/10/15 03:04:01;;;;;;;;;;;5.20;99.90;;;3.78;100.00;95944.91;10582371;27;1949;-78
2021/10/15 03:09:03;;;;;;;;;;;5.20;99.90;;;3.75;100.00;95945.38;10585969;28;1863;-77
2021/10/15 03:14:06;;;;;;;;;;;5.10;99.90;;;3.63;100.00;95951.69;10591887;27;1953;-78
2021/10/15 03:19:09;;;;;;;;;;;5.00;99.90;;;3.59;100.00;95950.53;10580206;28;1977;-78
2021/10/15 03:24:12;;;;;;;;;;;4.90;99.90;;;3.69;100.00;95950.78;10580330;28;1889;-79
2021/10/15 03:29:15;;;;;;;;;;;4.90;99.90;;;3.77;100.00;95948.63;10559734;28;1903;-77
2021/10/15 03:34:18;;;;;;;;;;;4.90;99.90;;;3.64;100.00;95954.13;10560782;28;1959;-79
2021/10/15 03:39:21;;;;;;;;;;;5.00;99.90;;;3.62;100.00;95950.84;10559934;28;1916;-78
2021/10/15 03:44:24;;;;;;;;;;;4.80;99.90;;;3.64;100.00;95948.81;10579119;28;1926;-77
2021/10/15 03:49:27;;;;;;;;;;;4.90;99.90;;;3.60;100.00;95950.28;10580047;28;2036;-79
2021/10/15 03:54:29;;;;;;;;;;;4.90;99.90;;;3.52;100.00;95934.66;10573969;28;1927;-78
2021/10/15 03:59:32;;;;;;;;;;;4.90;99.90;;;3.39;100.00;95935.66;10561217;28;2045;-78
2021/10/15 04:04:35;;;;;;;;;;;4.80;99.90;;;3.35;100.00;95925.69;10580824;28;1877;-78
2021/10/15 04:09:38;;;;;;;;;;;4.60;99.90;;;3.48;100.00;95917.53;10592945;27;1898;-78
2021/10/15 04:14:41;;;;;;;;;;;4.70;99.90;;;3.51;100.00;95906.47;10562568;28;2186;-77
2021/10/15 04:20:04;;;;;;;;;;;4.80;99.90;;;3.47;100.00;95905.28;10576015;28;1944;-77
2021/10/15 04:25:07;;;;;;;;;;;4.80;99.90;;;3.33;100.00;95909.16;10582051;28;2088;-78
2021/10/15 04:30:10;;;;;;;;;;;4.70;99.90;;;3.43;100.00;95894.28;10558909;28;2066;-80
2021/10/15 04:35:12;;;;;;;;;;;4.70;99.90;;;3.45;100.00;95888.75;10569385;28;1909;-77
2021/10/15 04:40:15;;;;;;;;;;;4.80;99.90;;;3.40;100.00;95894.75;10585927;28;1922;-78
2021/10/15 04:45:24;;;;;;;;;;;4.80;99.90;;;3.25;100.00;95895.16;10575374;28;1862;-80
2021/10/15 04:50:27;;;;;;;;;;;4.70;99.90;;;3.23;100.00;95897.19;10575470;27;2123;-77
2021/10/15 04:55:29;;;;;;;;;;;4.60;99.90;;;3.18;100.00;95891.78;10571433;27;2027;-77
2021/10/15 05:00:32;;;;;;;;;;;4.60;99.90;;;3.20;100.00;95883.56;10579393;27;1892;-80
2021/10/15 05:05:35;;;;;;;;;;;4.50;99.90;;;3.15;100.00;95873.63;10582162;27;2004;-78
2021/10/15 05:10:38;;;;;;;;;;;4.50;99.90;;;3.22;100.00;95877.00;10575545;27;1938;-74
2021/10/15 05:15:41;;;;;;;;;;;4.70;99.90;;;3.18;100.00;95872.34;10580685;27;1913;-81
2021/10/15 05:20:44;;;;;;;;;;;4.50;99.90;;;3.08;100.00;95869.44;10585160;27;1882;-80
2021/10/15 05:25:47;;;;;;;;;;;4.50;99.90;;;3.08;100.00;95856.97;10589567;27;1912;-79
2021/10/15 05:30:50;;;;;;;;;;;4.40;99.90;;;3.17;100.00;95847.63;10588099;27;1925;-80
2021/10/15 05:35:53;;;;;;;;;;;4.40;99.90;;;3.24;100.00;95848.38;10583749;28;1996;-80
2021/10/15 05:40:56;;;;;;;;;;;4.50;99.90;;;3.34;100.00;95847.81;10587043;28;2009;-81
2021/10/15 05:45:59;;;;;;;;;;;4.50;99.90;;;3.47;100.00;95850.28;10591823;27;1765;-79
2021/10/15 05:51:02;;;;;;;;;;;4.70;99.90;;;3.65;100.00;95846.75;10617522;27;1994;-78
2021/10/15 06:01:26;;;;;;;;;;;5.00;99.90;;;3.88;100.00;95847.81;10607318;27;1966;-80
2021/10/15 06:17:17;;;;;;;;;;;5.20;99.90;;;4.12;100.00;95849.47;10622555;27;1886;-80
2021/10/15 06:22:20;;;;;;;;;;;5.20;99.90;;;4.20;100.00;95848.28;10609389;28;1866;-79
2021/10/15 06:27:23;;;;;;;;;;;5.40;99.90;;;4.19;100.00;95850.16;10594056;28;2149;-78
2021/10/15 06:32:26;;;;;;;;;;;5.30;99.90;;;4.25;100.00;95851.06;10606972;28;1934;-80
2021/10/15 06:37:29;;;;;;;;;;;5.40;99.90;;;4.36;100.00;95844.13;10593791;28;1894;-79
2021/10/15 06:42:31;;;;;;;;;;;5.40;99.90;;;4.48;100.00;95842.28;10579049;28;1907;-78
2021/10/15 06:47:34;;;;;;;;;;;5.60;99.90;;;4.60;100.00;95851.88;10592864;28;1932;-78
2021/10/15 06:52:46;;;;;;;;;;;5.60;99.90;;;4.73;100.00;95853.47;10574441;28;1914;-80
2021/10/15 06:57:49;;;;;;;;;;;5.70;99.90;;;4.87;100.00;95851.34;10568279;28;1874;-79
2021/10/15 07:02:52;;;;;;;;;;;5.80;99.90;;;5.10;100.00;95853.97;10618782;28;1754;-78
2021/10/15 07:07:56;;;;;;;;;;;6.00;99.90;;;5.30;100.00;95866.84;10624596;27;1369;-79
2021/10/15 07:12:59;;;;;;;;;;;6.20;99.90;;;5.53;99.26;95859.78;10617089;27;3236;-78
2021/10/15 07:18:03;;;;;;;;;;;6.40;99.90;;;5.72;98.17;95858.53;10621420;27;1929;-79
2021/10/15 07:23:06;;;;;;;;;;;6.70;99.90;;;5.89;97.33;95856.69;10607583;28;2497;-78
2021/10/15 07:28:09;;;;;;;;;;;6.80;99.90;;;6.05;96.72;95857.78;10605218;28;1934;-78
2021/10/15 07:33:13;;;;;;;;;;;7.00;99.90;;;6.23;96.20;95860.22;10566156;28;2336;-79
2021/10/15 07:38:16;;;;;;;;;;;7.20;99.90;;;6.45;94.75;95859.47;10586912;28;1810;-79
2021/10/15 07:43:20;;;;;;;;;;;7.30;99.90;;;6.63;92.90;95853.84;10591535;28;2033;-80
2021/10/15 07:48:23;;;;;;;;;;;7.50;99.90;;;6.84;91.95;95854.91;10574459;27;1907;-79
2021/10/15 07:53:26;;;;;;;;;;;7.70;99.90;;;7.02;90.60;95857.28;10591192;28;1919;-81
2021/10/15 07:58:29;;;;;;;;;;;7.90;99.90;;;7.21;88.93;95852.44;10606639;27;1822;-78
2021/10/15 08:03:33;;;;;;;;;;;8.10;99.90;;;7.36;87.71;95846.44;10589215;27;1831;-79
2021/10/15 08:08:36;;;;;;;;;;;8.30;99.90;;;7.52;86.33;95856.25;10596497;27;1914;-79
2021/10/15 08:13:39;;;;;;;;;;;8.40;99.90;;;7.73;85.21;95851.91;10592532;27;1988;-81
2021/10/15 08:18:42;;;;;;;;;;;8.50;99.90;;;7.93;84.64;95861.97;10586137;28;1985;-78
2021/10/15 08:23:45;;;;;;;;;;;8.70;99.90;;;8.15;82.23;95858.41;10588877;27;1935;-79
2021/10/15 08:28:48;;;;;;;;;;;8.90;99.90;;;8.36;79.13;95866.38;10586423;28;1994;-78
2021/10/15 08:33:51;;;;;;;;;;;9.20;99.90;;;8.62;80.30;95848.59;10576442;27;1929;-79
2021/10/15 08:38:54;;;;;;;;;;;9.40;99.90;;;8.90;77.23;95850.06;10586715;27;2001;-79
2021/10/15 08:43:57;;;;;;;;;;;9.60;99.90;;;9.13;75.81;95842.69;10587477;27;1922;-79
2021/10/15 08:49:00;;;;;;;;;;;9.80;99.90;;;9.37;73.69;95846.50;10586540;28;2407;-80
2021/10/15 08:54:03;;;;;;;;;;;10.10;99.90;;;9.23;73.59;95847.28;10587295;27;1909;-79
2021/10/15 08:59:07;;;;;;;;;;;10.20;99.90;;;9.46;73.18;95852.16;10573614;28;1827;-79
2021/10/15 09:04:11;;;;;;;;;;;10.20;99.90;;;9.73;72.16;95850.09;10585803;27;1890;-79
2021/10/15 09:09:14;;;;;;;;;;;10.40;99.90;;;10.14;71.24;95852.81;10587372;27;1918;-79
2021/10/15 09:14:17;;;;;;;;;;;10.70;99.90;;;10.52;69.69;95856.84;10585660;27;2188;-78
2021/10/15 09:19:19;;;;;;;;;;;11.10;99.90;;;10.79;67.34;95845.78;10588956;28;1866;-78
2021/10/15 09:24:22;;;;;;;;;;;11.40;99.90;;;11.02;66.09;95835.50;10601510;27;1850;-79
2021/10/15 09:29:26;;;;;;;;;;;11.70;99.90;;;10.82;65.94;95842.56;10592337;27;1956;-79
2021/10/15 09:34:28;;;;;;;;;;;11.80;99.90;;;10.78;65.67;95837.97;10592111;28;1910;-79
2021/10/15 09:39:34;;;;;;;;;;;11.70;99.90;;;10.71;66.53;95845.53;10594129;28;1930;-78
2021/10/15 09:44:37;;;;;;;;;;;11.70;99.90;;;10.92;66.37;95840.91;10605140;28;1898;-81
2021/10/15 09:49:40;;;;;;;;;;;11.70;99.90;;;11.16;67.04;95841.88;10593453;28;1909;-78
2021/10/15 09:54:42;;;;;;;;;;;11.90;99.90;;;11.19;66.48;95838.63;10596027;27;1973;-78
2021/10/15 09:59:45;;;;;;;;;;;12.10;99.90;;;11.22;67.06;95840.78;10596528;27;1748;-79
2021/10/15 10:04:48;;;;;;;;;;;12.10;99.90;;;11.55;65.67;95835.78;10593736;28;1807;-78
2021/10/15 10:09:51;;;;;;;;;;;12.30;99.90;;;12.14;63.41;95830.28;10598594;28;1997;-79
2021/10/15 10:14:54;;;;;;;;;;;12.60;99.90;;;12.41;62.12;95824.41;10598781;28;1977;-78
2021/10/15 10:19:57;;;;;;;;;;;13.00;99.90;;;12.74;60.12;95821.13;10592253;28;1878;-81
2021/10/15 10:25:00;;;;;;;;;;;13.40;99.90;;;12.83;59.96;95817.50;10597975;28;1946;-80
2021/10/15 10:30:03;;;;;;;;;;;13.50;99.90;;;12.69;59.64;95820.09;10602177;28;2263;-79
2021/10/15 10:35:06;;;;;;;;;;;13.60;99.90;;;12.67;59.90;95826.88;10593111;27;1914;-80
2021/10/15 10:40:09;;;;;;;;;;;13.50;99.90;;;12.73;59.43;95825.72;10601275;28;1854;-80
2021/10/15 10:45:13;;;;;;;;;;;13.60;99.90;;;12.57;61.88;95824.25;10597000;28;1874;-78
2021/10/15 10:50:16;;;;;;;;;;;13.50;99.90;;;12.70;61.50;95813.59;10593735;28;1921;-79
2021/10/15 10:55:19;;;;;;;;;;;13.50;99.90;;;12.66;62.17;95819.84;10598543;28;1992;-79
2021/10/15 11:00:23;;;;;;;;;;;13.60;99.90;;;12.90;58.91;95817.97;10600824;28;1886;-78
2021/10/15 11:05:27;;;;;;;;;;;13.70;99.90;;;12.84;59.62;95816.41;10600144;28;1990;-80
2021/10/15 11:10:35;;;;;;;;;;;13.70;99.90;;;12.83;59.55;95819.41;10595649;28;1793;-78
2021/10/15 11:15:38;;;;;;;;;;;13.70;99.90;;;12.67;60.95;95805.28;10617223;27;1930;-78
2021/10/15 11:20:40;;;;;;;;;;;13.60;99.90;;;12.63;62.67;95799.66;10608408;27;1811;-78
2021/10/15 11:25:43;;;;;;;;;;;13.60;99.90;;;12.73;60.65;95787.97;10591918;27;1770;-78
2021/10/15 11:30:46;;;;;;;;;;;13.60;99.90;;;12.75;61.81;95785.78;10616866;27;1447;-79
2021/10/15 11:35:50;;;;;;;;;;;13.70;99.90;;;13.05;59.88;95778.44;10632923;27;1894;-79
2021/10/15 11:40:53;;;;;;;;;;;13.80;99.90;;;13.06;59.59;95775.44;10625960;27;1846;-78
2021/10/15 11:45:56;;;;;;;;;;;14.00;99.90;;;13.07;59.66;95760.03;10620217;27;1871;-82
2021/10/15 11:50:59;;;;;;;;;;;14.00;99.90;;;13.29;58.14;95751.41;10629565;27;1990;-78
2021/10/15 11:56:02;;;;;;;;;;;14.10;99.90;;;13.21;58.15;95756.38;10629918;27;1959;-80
2021/10/15 12:01:07;;;;;;;;;;;14.10;99.90;;;13.32;57.71;95757.03;10626733;27;1801;-78
2021/10/15 12:06:10;;;;;;;;;;;14.20;99.90;;;13.32;55.45;95735.44;10622370;27;1638;-78
2021/10/15 12:11:13;;;;;;;;;;;14.30;99.90;;;13.20;56.44;95726.94;10621859;27;1700;-79
2021/10/15 12:16:16;;;;;;;;;;;14.20;99.90;;;13.31;56.67;95725.75;10621216;27;1994;-79
2021/10/15 12:21:18;;;;;;;;;;;14.20;99.90;;;13.39;56.10;95724.28;10619147;27;1521;-79
2021/10/15 12:26:21;;;;;;;;;;;14.30;99.90;;;13.39;57.49;95725.06;10626556;27;1847;-79
2021/10/15 12:31:24;;;;;;;;;;;14.30;99.90;;;13.42;57.91;95719.09;10599711;28;1851;-80
2021/10/15 12:36:27;;;;;;;;;;;14.40;99.90;;;13.40;57.11;95702.38;10609813;27;1977;-80
2021/10/15 12:41:30;;;;;;;;;;;14.40;99.90;;;13.37;56.02;95694.88;10616978;27;1712;-79
2021/10/15 12:46:33;;;;;;;;;;;14.40;99.90;;;13.35;55.97;95697.06;10608288;28;1921;-79
2021/10/15 12:51:36;;;;;;;;;;;14.30;99.90;;;13.27;56.98;95695.03;10595627;27;2000;-79
2021/10/15 12:56:41;;;;;;;;;;;14.30;99.90;;;13.48;56.46;95690.91;10598296;28;1937;-80
2021/10/15 13:01:45;;;;;;;;;;;14.30;99.90;;;13.47;55.26;95692.00;10575102;28;1792;-80
2021/10/15 13:06:48;;;;;;;;;;;14.40;99.90;;;13.72;53.60;95680.00;10595780;27;1827;-80
2021/10/15 13:11:51;;;;;;;;;;;14.50;99.90;;;13.73;53.87;95680.78;10569889;28;1842;-79
2021/10/15 13:16:55;;;;;;;;;;;14.70;99.90;;;13.81;53.36;95690.16;10588552;28;1988;-80
2021/10/15 13:21:58;;;;;;;;;;;14.80;99.90;;;13.78;54.61;95683.41;10571899;28;1862;-79
2021/10/15 13:27:00;;;;;;;;;;;14.80;99.90;;;13.88;54.99;95677.06;10583951;28;1914;-79
2021/10/15 13:32:03;;;;;;;;;;;14.80;99.90;;;13.74;54.93;95677.00;10581450;27;2019;-81
2021/10/15 13:37:09;;;;;;;;;;;14.80;99.90;;;13.75;55.59;95670.53;10593404;28;1925;-78
2021/10/15 13:42:33;;;;;;;;;;;14.80;99.90;;;13.60;55.73;95658.03;10596759;28;2027;-79
2021/10/15 13:47:41;;;;;;;;;;;14.70;99.90;;;13.84;53.96;95667.94;10597680;28;1985;-80
2021/10/15 13:52:44;;;;;;;;;;;14.70;99.90;;;13.88;54.89;95653.53;10597544;28;1902;-79
2021/10/15 13:57:47;;;;;;;;;;;14.80;99.90;;;13.76;55.51;95658.63;10603803;28;1953;-77
2021/10/15 14:02:52;;;;;;;;;;;14.80;99.90;;;13.96;54.41;95665.56;10599379;28;1779;-79
2021/10/15 14:07:55;;;;;;;;;;;14.90;99.90;;;13.78;55.96;95668.00;10585785;28;1894;-79
2021/10/15 14:12:58;;;;;;;;;;;14.90;99.90;;;13.76;55.06;95670.22;10581573;28;1910;-80
2021/10/15 14:18:01;;;;;;;;;;;14.80;99.90;;;13.95;54.54;95667.47;10564642;28;1835;-79
2021/10/15 14:23:04;;;;;;;;;;;14.90;99.90;;;13.88;55.19;95667.06;10565331;28;1894;-79
2021/10/15 14:28:07;;;;;;;;;;;14.90;99.90;;;13.80;55.27;95670.41;10581103;27;1859;-78
2021/10/15 14:33:10;;;;;;;;;;;14.80;99.90;;;13.90;56.10;95664.03;10582949;27;2207;-79
2021/10/15 14:38:13;;;;;;;;;;;14.90;99.90;;;13.93;56.30;95666.13;10589965;27;1739;-79
2021/10/15 14:43:16;;;;;;;;;;;14.90;99.90;;;13.96;56.11;95660.16;10587559;28;1763;-80
2021/10/15 14:48:19;;;;;;;;;;;14.90;99.90;;;13.94;56.19;95660.47;10590028;28;1838;-79
2021/10/15 14:53:22;;;;;;;;;;;14.90;99.90;;;13.86;56.21;95649.50;10591053;28;2258;-80
2021/10/15 14:58:25;;;;;;;;;;;14.90;99.90;;;13.73;56.38;95659.97;10588802;28;2196;-81
2021/10/15 15:03:28;;;;;;;;;;;14.90;99.90;;;13.69;56.82;95655.50;10591613;28;1599;-80
2021/10/15 15:08:31;;;;;;;;;;;14.80;99.90;;;13.72;57.57;95658.38;10568742;28;1889;-80
2021/10/15 15:13:34;;;;;;;;;;;14.80;99.90;;;13.75;57.07;95659.72;10589517;28;1981;-81
2021/10/15 15:18:37;;;;;;;;;;;14.80;99.90;;;13.93;56.35;95658.03;10590280;28;1923;-79
2021/10/15 15:23:40;;;;;;;;;;;14.80;99.90;;;13.99;57.07;95668.44;10589883;27;1918;-79
2021/10/15 15:28:43;;;;;;;;;;;14.90;99.90;;;13.79;57.88;95668.81;10584135;27;2166;-80
2021/10/15 15:33:46;;;;;;;;;;;14.90;99.90;;;13.64;57.97;95671.78;10594930;27;1913;-79
2021/10/15 15:38:49;;;;;;;;;;;14.80;99.90;;;13.44;58.38;95659.41;10587695;27;1977;-81
2021/10/15 15:43:54;;;;;;;;;;;14.60;99.90;;;13.33;57.42;95677.66;10589617;27;2270;-80
2021/10/15 15:48:57;;;;;;;;;;;14.40;99.90;;;13.20;58.62;95672.97;10597097;28;1906;-79
2021/10/15 15:54:00;;;;;;;;;;;14.30;99.90;;;12.97;60.62;95675.41;10605983;28;1909;-80
2021/10/15 15:59:04;;;;;;;;;;;14.20;99.90;;;12.69;61.85;95681.75;10595928;27;2002;-79
2021/10/15 16:04:07;;;;;;;;;;;14.00;99.90;;;12.52;64.09;95690.28;10586978;28;1914;-80
2021/10/15 16:09:09;;;;;;;;;;;13.80;99.90;;;12.35;65.74;95693.47;10589749;28;2183;-80
2021/10/15 16:14:12;;;;;;;;;;;13.60;99.90;;;12.13;67.47;95683.16;10590407;28;1914;-79
2021/10/15 16:19:15;;;;;;;;;;;13.50;99.90;;;11.98;68.06;95696.00;10567041;28;1913;-81
2021/10/15 16:24:18;;;;;;;;;;;13.30;99.90;;;11.94;68.80;95701.13;10589229;28;2033;-79
2021/10/15 16:29:25;;;;;;;;;;;13.20;99.90;;;11.72;70.64;95709.66;10565677;27;2018;-79
2021/10/15 16:34:28;;;;;;;;;;;13.10;99.90;;;11.57;72.60;95709.78;10572392;28;2239;-79
2021/10/15 16:39:31;;;;;;;;;;;12.90;99.90;;;11.47;73.01;95712.56;10588094;28;1976;-79
2021/10/15 16:44:34;;;;;;;;;;;12.80;99.90;;;11.45;72.91;95720.91;10587997;28;1982;-78
2021/10/15 16:49:37;;;;;;;;;;;12.70;99.90;;;11.42;73.99;95726.03;10568305;28;2137;-79
2021/10/15 16:54:41;;;;;;;;;;;12.60;99.90;;;11.58;72.77;95733.75;10589719;27;2266;-81
2021/10/15 16:59:44;;;;;;;;;;;12.60;99.90;;;11.52;73.53;95742.94;10596905;28;1424;-78
2021/10/15 17:04:47;;;;;;;;;;;12.60;99.90;;;11.52;74.02;95732.16;10602791;28;1925;-79
2021/10/15 17:09:52;;;;;;;;;;;12.60;99.90;;;11.55;73.84;95741.56;10569507;28;1866;-78
2021/10/15 17:14:55;;;;;;;;;;;12.60;99.90;;;11.60;72.69;95752.31;10583101;27;1980;-80
2021/10/15 17:19:58;;;;;;;;;;;12.60;99.90;;;11.60;72.96;95746.91;10599753;27;1982;-79
2021/10/15 17:25:01;;;;;;;;;;;12.60;99.90;;;11.53;74.43;95744.53;10602693;27;2023;-79
2021/10/15 17:30:04;;;;;;;;;;;12.60;99.90;;;11.53;74.01;95757.19;10585235;27;1831;-79
2021/10/15 17:35:07;;;;;;;;;;;12.60;99.90;;;11.48;73.84;95747.25;10580251;28;1929;-79
2021/10/15 17:40:10;;;;;;;;;;;12.50;99.90;;;11.49;73.99;95756.13;10583754;27;2308;-79
2021/10/15 17:45:13;;;;;;;;;;;12.50;99.90;;;11.45;74.99;95763.16;10574782;28;1741;-79
2021/10/15 17:50:16;;;;;;;;;;;12.50;99.90;;;11.43;75.53;95768.81;10592314;28;1906;-79
2021/10/15 17:55:19;;;;;;;;;;;12.50;99.90;;;11.43;75.87;95765.31;10586779;28;2084;-79
2021/10/15 18:00:22;;;;;;;;;;;12.50;99.90;;;11.41;75.57;95767.50;10588354;28;1910;-80
2021/10/15 18:05:28;;;;;;;;;;;12.50;99.90;;;11.34;76.75;95767.81;10587507;28;1937;-80
2021/10/15 18:10:31;;;;;;;;;;;12.40;99.90;;;11.30;77.00;95778.31;10591172;28;1913;-79
2021/10/15 18:15:36;;;;;;;;;;;12.40;99.90;;;11.33;76.83;95783.16;10590835;28;2256;-79
2021/10/15 18:20:39;;;;;;;;;;;12.30;99.90;;;11.22;77.74;95780.78;10595065;27;1732;-79
2021/10/15 18:25:42;;;;;;;;;;;12.30;99.90;;;11.18;78.20;95783.22;10598984;27;1994;-78
2021/10/15 18:30:56;;;;;;;;;;;12.30;99.90;;;11.13;78.88;95785.94;10590912;28;1976;-80
2021/10/15 18:36:00;;;;;;;;;;;12.20;99.90;;;11.09;79.85;95788.38;10578051;28;2217;-79
2021/10/15 18:41:03;;;;;;;;;;;12.20;99.90;;;10.99;80.28;95787.63;10589233;28;1859;-79
2021/10/15 18:46:06;;;;;;;;;;;12.10;99.90;;;11.07;78.95;95795.13;10597498;28;1984;-81
2021/10/15 18:51:08;;;;;;;;;;;12.10;99.90;;;11.04;80.07;95806.44;10592499;28;1408;-81
2021/10/15 18:56:11;;;;;;;;;;;12.10;99.90;;;11.01;80.99;95817.75;10595797;28;1967;-82
2021/10/15 19:01:14;;;;;;;;;;;12.10;99.90;;;11.04;79.97;95818.00;10571942;28;1716;-78
2021/10/15 19:06:17;;;;;;;;;;;12.10;99.90;;;11.10;79.79;95824.16;10588720;28;1988;-81
2021/10/15 19:11:20;;;;;;;;;;;12.20;99.90;;;10.98;81.87;95837.13;10590628;28;2195;-81
2021/10/15 19:16:23;;;;;;;;;;;12.10;99.90;;;11.01;81.77;95834.69;10591584;28;1991;-80
2021/10/15 19:21:26;;;;;;;;;;;12.00;99.90;;;10.97;82.06;95846.25;10590608;28;1996;-79
2021/10/15 19:26:28;;;;;;;;;;;12.00;99.90;;;10.86;82.23;95852.75;10599697;28;1934;-80
2021/10/15 19:31:31;;;;;;;;;;;12.00;99.90;;;10.78;81.99;95862.97;10594677;28;2362;-80
2021/10/15 19:36:34;;;;;;;;;;;11.90;99.90;;;10.76;83.14;95854.41;10580222;27;1917;-81
2021/10/15 19:41:37;;;;;;;;;;;11.80;99.90;;;10.70;83.48;95855.47;10604217;27;1875;-77
2021/10/15 19:46:40;;;;;;;;;;;11.80;99.90;;;10.67;83.86;95856.00;10588619;27;1874;-77
2021/10/15 19:51:43;;;;;;;;;;;11.80;99.90;;;10.71;83.60;95861.66;10590246;27;1889;-76
2021/10/15 19:56:46;;;;;;;;;;;11.70;99.90;;;10.59;84.52;95858.44;10590032;27;3381;-77
2021/10/15 20:01:49;;;;;;;;;;;11.70;99.90;;;10.56;84.66;95854.44;10598738;27;2374;-77
2021/10/15 20:06:53;;;;;;;;;;;11.70;99.90;;;10.54;84.81;95856.56;10611704;27;2429;-77
2021/10/15 20:11:56;;;;;;;;;;;11.70;99.90;;;10.53;85.03;95865.72;10597567;27;2288;-78
2021/10/15 20:16:58;;;;;;;;;;;11.60;99.90;;;10.43;86.29;95871.09;10578438;27;1971;-75
2021/10/15 20:22:01;;;;;;;;;;;11.60;99.90;;;10.46;84.42;95870.56;10604736;27;1870;-81
2021/10/15 20:27:04;;;;;;;;;;;11.50;99.90;;;10.34;83.97;95878.91;10624633;27;1914;-80
2021/10/15 20:32:07;;;;;;;;;;;11.50;99.90;;;10.34;85.06;95872.72;10618802;27;2184;-79
2021/10/15 20:37:11;;;;;;;;;;;11.40;99.90;;;10.19;84.82;95877.00;10616591;27;1894;-78
2021/10/15 20:42:15;;;;;;;;;;;11.30;99.90;;;10.08;85.54;95878.06;10621976;27;1794;-80
2021/10/15 20:47:37;;;;;;;;;;;11.20;99.90;;;9.97;85.64;95873.75;10615268;27;1910;-78
2021/10/15 20:53:00;;;;;;;;;;;11.10;99.90;;;9.89;85.86;95893.06;10624529;27;4717;-78
2021/10/15 20:58:23;;;;;;;;;;;11.00;99.90;;;9.84;85.17;95895.75;10617797;27;1890;-80
2021/10/15 21:03:26;;;;;;;;;;;11.00;99.90;;;9.74;86.35;95891.16;10611945;27;2166;-80
2021/10/15 21:08:29;;;;;;;;;;;10.90;99.90;;;9.61;87.19;95887.13;10607664;27;1961;-80
2021/10/15 21:13:35;;;;;;;;;;;10.80;99.90;;;9.54;86.79;95885.72;10618360;27;1752;-78
2021/10/15 21:18:38;;;;;;;;;;;10.80;99.90;;;9.50;87.84;95890.81;10588757;27;1977;-80
2021/10/15 21:23:41;;;;;;;;;;;10.70;99.90;;;9.32;88.77;95891.28;10593537;27;1829;-81
2021/10/15 21:28:44;;;;;;;;;;;10.60;99.90;;;9.27;88.99;95900.13;10619941;27;1728;-79
2021/10/15 21:33:47;;;;;;;;;;;10.50;99.90;;;9.24;89.66;95900.66;10596920;27;1790;-80
2021/10/15 21:38:50;;;;;;;;;;;10.40;99.90;;;9.21;89.94;95901.16;10618940;27;1890;-80
2021/10/15 21:43:53;;;;;;;;;;;10.30;99.90;;;9.11;90.88;95907.31;10628023;27;1843;-79
2021/10/15 21:48:56;;;;;;;;;;;10.30;99.90;;;9.13;91.07;95913.19;10600798;27;1904;-79
2021/10/15 21:53:58;;;;;;;;;;;10.20;99.90;;;9.11;91.20;95906.50;10614003;27;1947;-81
2021/10/15 21:59:01;;;;;;;;;;;10.20;99.90;;;9.08;91.37;95899.75;10614200;27;3438;-80
2021/10/15 22:04:04;;;;;;;;;;;10.20;99.90;;;9.01;91.87;95904.56;10590486;28;2398;-79
2021/10/15 22:09:07;;;;;;;;;;;10.20;99.90;;;9.02;92.33;95910.72;10609254;28;2177;-80
2021/10/15 22:14:10;;;;;;;;;;;10.20;99.90;;;8.98;93.75;95904.28;10598383;28;2291;-79
2021/10/15 22:19:13;;;;;;;;;;;10.10;99.90;;;8.95;93.85;95902.91;10580344;28;1986;-80
2021/10/15 22:24:17;;;;;;;;;;;10.10;99.90;;;9.08;94.22;95910.50;10582210;27;1710;-79
2021/10/15 22:29:19;;;;;;;;;;;10.10;99.90;;;9.15;93.21;95900.34;10600035;28;2382;-78
2021/10/15 22:34:22;;;;;;;;;;;10.10;99.90;;;9.13;93.29;95896.31;10588033;28;1938;-78
2021/10/15 22:39:25;;;;;;;;;;;10.20;99.90;;;9.13;93.44;95894.44;10590849;28;2389;-77
2021/10/15 22:44:28;;;;;;;;;;;10.20;99.90;;;9.08;93.79;95894.41;10575730;28;1872;-79
2021/10/15 22:49:31;;;;;;;;;;;10.20;99.90;;;9.06;94.61;95895.75;10584068;28;2201;-77
2021/10/15 22:54:37;;;;;;;;;;;10.10;99.90;;;9.07;94.60;95894.66;10583664;28;2032;-80
2021/10/15 22:59:40;;;;;;;;;;;10.10;99.90;;;9.08;94.82;95893.59;10592317;28;2263;-79
2021/10/15 23:04:43;;;;;;;;;;;10.10;99.90;;;9.16;94.97;95895.78;10568084;28;1916;-78
2021/10/15 23:09:46;;;;;;;;;;;10.10;99.90;;;9.20;95.37;95897.69;10580394;27;1787;-77
2021/10/15 23:14:49;;;;;;;;;;;10.20;99.90;;;9.25;95.21;95909.50;10593235;28;1752;-79
2021/10/15 23:19:52;;;;;;;;;;;10.20;99.90;;;9.33;94.77;95917.03;10578336;28;1961;-77
2021/10/15 23:24:56;;;;;;;;;;;10.40;99.90;;;9.29;95.00;95915.94;10589011;27;2044;-78
2021/10/15 23:29:58;;;;;;;;;;;10.30;99.90;;;9.32;95.02;95910.88;10578766;27;2270;-77
2021/10/15 23:35:01;;;;;;;;;;;10.30;99.90;;;9.31;95.11;95919.19;10583001;27;1868;-78
2021/10/15 23:40:04;;;;;;;;;;;10.30;99.90;;;9.34;95.40;95919.47;10609981;27;1947;-79